createdAt,value
2017-09-05T00:00:49.954Z,0
2017-09-05T00:01:58.861Z,0
2017-09-05T00:03:07.694Z,0
2017-09-05T00:04:16.582Z,0
2017-09-05T00:05:25.495Z,0
2017-09-05T00:06:34.325Z,0
2017-09-05T00:07:43.160Z,0
2017-09-05T00:08:51.987Z,0
2017-09-05T00:10:00.820Z,0
2017-09-05T00:11:09.798Z,0
2017-09-05T00:12:18.670Z,0
2017-09-05T00:13:27.685Z,0
2017-09-05T00:14:36.760Z,0
2017-09-05T00:15:45.595Z,0
2017-09-05T00:16:54.444Z,0
2017-09-05T00:18:03.601Z,0
2017-09-05T00:19:12.426Z,0
2017-09-05T00:20:21.259Z,0
2017-09-05T00:21:30.090Z,0
2017-09-05T00:22:38.920Z,0
2017-09-05T00:23:47.745Z,0
2017-09-05T00:24:56.575Z,0
2017-09-05T00:26:05.404Z,0
2017-09-05T00:27:14.235Z,0
2017-09-05T00:28:24.030Z,0
2017-09-05T00:29:33.066Z,0
2017-09-05T00:30:42.447Z,0
2017-09-05T00:31:51.513Z,0
2017-09-05T00:33:01.667Z,0
2017-09-05T00:34:11.175Z,0
2017-09-05T00:35:20.464Z,0
2017-09-05T00:36:29.356Z,0
2017-09-05T00:37:38.733Z,0
2017-09-05T00:38:48.348Z,0
2017-09-05T00:39:57.896Z,0
2017-09-05T00:41:07.034Z,0
2017-09-05T00:42:15.864Z,0
2017-09-05T00:43:24.691Z,0
2017-09-05T00:44:34.561Z,0
2017-09-05T00:45:44.304Z,0
2017-09-05T00:46:54.037Z,0
2017-09-05T00:48:03.290Z,0
2017-09-05T00:49:13.081Z,0
2017-09-05T00:50:22.595Z,0
2017-09-05T00:51:31.988Z,0
2017-09-05T00:52:40.915Z,0
2017-09-05T00:53:50.249Z,0
2017-09-05T00:54:59.847Z,0
2017-09-05T00:56:08.930Z,0
2017-09-05T00:57:18.411Z,0
2017-09-05T00:58:27.709Z,0
2017-09-05T00:59:37.155Z,0
2017-09-05T01:00:46.728Z,0
2017-09-05T01:01:56.090Z,0
2017-09-05T01:03:04.977Z,0
2017-09-05T01:04:13.799Z,0
2017-09-05T01:05:22.629Z,0
2017-09-05T01:06:31.461Z,0
2017-09-05T01:07:40.287Z,0
2017-09-05T01:08:49.113Z,0
2017-09-05T01:09:57.942Z,0
2017-09-05T01:11:06.765Z,0
2017-09-05T01:12:15.591Z,0
2017-09-05T01:13:24.428Z,0
2017-09-05T01:14:33.254Z,0
2017-09-05T01:15:42.082Z,0
2017-09-05T01:16:50.913Z,0
2017-09-05T01:17:59.741Z,0
2017-09-05T01:19:08.572Z,0
2017-09-05T01:20:17.401Z,0
2017-09-05T01:21:26.230Z,0
2017-09-05T01:22:35.059Z,0
2017-09-05T01:23:43.884Z,0
2017-09-05T01:24:52.714Z,0
2017-09-05T01:26:01.545Z,0
2017-09-05T01:27:10.375Z,0
2017-09-05T01:28:19.204Z,0
2017-09-05T01:29:28.035Z,0
2017-09-05T01:30:36.858Z,0
2017-09-05T01:31:45.691Z,0
2017-09-05T01:32:54.512Z,0
2017-09-05T01:34:03.342Z,0
2017-09-05T01:35:12.172Z,0
2017-09-05T01:36:21.325Z,0
2017-09-05T01:37:30.154Z,0
2017-09-05T01:38:38.980Z,0
2017-09-05T01:39:47.802Z,0
2017-09-05T01:40:56.632Z,0
2017-09-05T01:42:05.465Z,0
2017-09-05T01:43:14.292Z,0
2017-09-05T01:44:23.123Z,0
2017-09-05T01:45:31.950Z,0
2017-09-05T01:46:40.781Z,0
2017-09-05T01:47:49.932Z,0
2017-09-05T01:48:58.761Z,0
2017-09-05T01:50:07.590Z,0
2017-09-05T01:51:16.418Z,0
2017-09-05T01:52:25.244Z,0
2017-09-05T01:53:34.074Z,0
2017-09-05T01:54:42.902Z,0
2017-09-05T01:55:51.732Z,0
2017-09-05T01:57:00.562Z,0
2017-09-05T01:58:09.392Z,0
2017-09-05T01:59:18.219Z,0
2017-09-05T02:00:27.370Z,0
2017-09-05T02:01:36.199Z,0
2017-09-05T02:02:45.022Z,0
2017-09-05T02:03:54.177Z,0
2017-09-05T02:05:03.004Z,0
2017-09-05T02:06:11.836Z,0
2017-09-05T02:07:20.668Z,0
2017-09-05T02:08:29.497Z,0
2017-09-05T02:09:38.322Z,0
2017-09-05T02:10:47.148Z,0
2017-09-05T02:11:56.308Z,0
2017-09-05T02:13:05.137Z,0
2017-09-05T02:14:13.965Z,0
2017-09-05T02:15:22.795Z,0
2017-09-05T02:16:31.623Z,0
2017-09-05T02:17:40.456Z,0
2017-09-05T02:18:49.281Z,0
2017-09-05T02:19:58.109Z,0
2017-09-05T02:21:06.932Z,0
2017-09-05T02:22:15.767Z,0
2017-09-05T02:23:24.589Z,0
2017-09-05T02:24:33.424Z,0
2017-09-05T02:25:42.253Z,0
2017-09-05T02:26:51.080Z,0
2017-09-05T02:27:59.903Z,0
2017-09-05T02:29:08.731Z,0
2017-09-05T02:30:17.557Z,0
2017-09-05T02:31:26.384Z,0
2017-09-05T02:32:35.210Z,0
2017-09-05T02:33:44.035Z,0
2017-09-05T02:34:52.864Z,0
2017-09-05T02:36:01.697Z,0
2017-09-05T02:37:10.527Z,0
2017-09-05T02:38:19.355Z,0
2017-09-05T02:39:28.180Z,0
2017-09-05T02:40:37.007Z,0
2017-09-05T02:41:45.832Z,0
2017-09-05T02:42:54.663Z,0
2017-09-05T02:44:03.819Z,0
2017-09-05T02:45:12.643Z,0
2017-09-05T02:46:21.472Z,0
2017-09-05T02:47:30.301Z,0
2017-09-05T02:48:39.127Z,0
2017-09-05T02:49:47.955Z,0
2017-09-05T02:50:56.789Z,0
2017-09-05T02:52:05.614Z,0
2017-09-05T02:53:14.446Z,0
2017-09-05T02:54:23.633Z,0
2017-09-05T02:55:32.461Z,0
2017-09-05T02:56:41.294Z,0
2017-09-05T02:57:50.122Z,0
2017-09-05T02:58:58.952Z,0
2017-09-05T03:00:08.110Z,0
2017-09-05T03:01:16.934Z,0
2017-09-05T03:02:25.759Z,0
2017-09-05T03:03:34.593Z,0
2017-09-05T03:04:43.422Z,0
2017-09-05T03:05:52.246Z,0
2017-09-05T03:07:01.403Z,0
2017-09-05T03:08:10.244Z,0
2017-09-05T03:09:19.076Z,0
2017-09-05T03:10:27.905Z,0
2017-09-05T03:11:36.731Z,0
2017-09-05T03:12:45.564Z,0
2017-09-05T03:13:54.388Z,0
2017-09-05T03:15:03.219Z,0
2017-09-05T03:16:12.048Z,0
2017-09-05T03:17:20.879Z,0
2017-09-05T03:18:29.704Z,0
2017-09-05T03:19:38.533Z,0
2017-09-05T03:20:47.365Z,0
2017-09-05T03:21:56.181Z,0
2017-09-05T03:23:05.012Z,0
2017-09-05T03:24:13.865Z,0
2017-09-05T03:25:22.665Z,0
2017-09-05T03:26:31.489Z,0
2017-09-05T03:27:40.315Z,0
2017-09-05T03:28:49.140Z,0
2017-09-05T03:29:57.978Z,0
2017-09-05T03:31:06.809Z,0
2017-09-05T03:32:15.630Z,0
2017-09-05T03:33:24.463Z,0
2017-09-05T03:34:33.291Z,0
2017-09-05T03:35:42.122Z,0
2017-09-05T03:36:50.948Z,0
2017-09-05T03:37:59.771Z,0
2017-09-05T03:39:08.596Z,0
2017-09-05T03:40:17.428Z,0
2017-09-05T03:41:26.254Z,0
2017-09-05T03:42:35.411Z,0
2017-09-05T03:43:44.240Z,0
2017-09-05T03:44:53.065Z,0
2017-09-05T03:46:01.898Z,0
2017-09-05T03:47:10.721Z,0
2017-09-05T03:48:19.554Z,0
2017-09-05T03:49:28.381Z,0
2017-09-05T03:50:37.211Z,0
2017-09-05T03:51:46.037Z,0
2017-09-05T03:52:54.872Z,0
2017-09-05T03:54:03.701Z,0
2017-09-05T03:55:12.527Z,0
2017-09-05T03:56:21.356Z,0
2017-09-05T03:57:30.186Z,0
2017-09-05T03:58:39.014Z,0
2017-09-05T03:59:47.843Z,0
2017-09-05T04:00:56.670Z,0
2017-09-05T04:02:05.493Z,0
2017-09-05T04:03:14.324Z,0
2017-09-05T04:04:23.156Z,0
2017-09-05T04:05:31.980Z,0
2017-09-05T04:06:40.812Z,0
2017-09-05T04:07:49.631Z,0
2017-09-05T04:08:58.458Z,0
2017-09-05T04:10:07.288Z,0
2017-09-05T04:11:16.119Z,0
2017-09-05T04:12:24.943Z,0
2017-09-05T04:13:33.773Z,0
2017-09-05T04:14:42.601Z,0
2017-09-05T04:15:51.431Z,0
2017-09-05T04:17:00.261Z,0
2017-09-05T04:18:09.088Z,0
2017-09-05T04:19:17.916Z,0
2017-09-05T04:20:26.746Z,0
2017-09-05T04:21:35.573Z,0
2017-09-05T04:22:44.401Z,0
2017-09-05T04:23:53.227Z,0
2017-09-05T04:25:02.053Z,0
2017-09-05T04:26:10.880Z,0
2017-09-05T04:27:19.710Z,0
2017-09-05T04:28:28.537Z,0
2017-09-05T04:29:37.359Z,0
2017-09-05T04:30:46.189Z,0
2017-09-05T04:31:55.014Z,0
2017-09-05T04:33:03.846Z,0
2017-09-05T04:34:12.669Z,0
2017-09-05T04:35:21.502Z,0
2017-09-05T04:36:30.323Z,0
2017-09-05T04:37:39.151Z,0
2017-09-05T04:38:47.982Z,0
2017-09-05T04:39:56.807Z,0
2017-09-05T04:41:05.638Z,0
2017-09-05T04:42:14.459Z,0
2017-09-05T04:43:23.286Z,0
2017-09-05T04:44:32.115Z,0
2017-09-05T04:45:40.944Z,0
2017-09-05T04:46:49.767Z,0
2017-09-05T04:47:58.598Z,0
2017-09-05T04:49:07.429Z,0
2017-09-05T04:50:16.257Z,5
2017-09-05T04:51:25.086Z,5
2017-09-05T04:52:33.912Z,5
2017-09-05T04:53:42.743Z,5
2017-09-05T04:54:51.568Z,5
2017-09-05T04:56:00.398Z,5
2017-09-05T04:57:09.229Z,5
2017-09-05T04:58:18.058Z,5
2017-09-05T04:59:26.889Z,5
2017-09-05T05:00:35.716Z,5
2017-09-05T05:01:44.543Z,5
2017-09-05T05:02:53.369Z,5
2017-09-05T05:04:02.195Z,5
2017-09-05T05:05:11.022Z,5
2017-09-05T05:06:20.006Z,5
2017-09-05T05:07:28.832Z,5
2017-09-05T05:08:37.657Z,5
2017-09-05T05:09:46.520Z,5
2017-09-05T05:10:55.314Z,5
2017-09-05T05:12:04.140Z,5
2017-09-05T05:13:12.972Z,5
2017-09-05T05:14:21.798Z,5
2017-09-05T05:15:30.622Z,5
2017-09-05T05:16:39.454Z,10
2017-09-05T05:17:48.436Z,10
2017-09-05T05:18:57.261Z,10
2017-09-05T05:20:06.095Z,10
2017-09-05T05:21:14.918Z,10
2017-09-05T05:22:23.748Z,10
2017-09-05T05:23:32.905Z,10
2017-09-05T05:24:41.737Z,10
2017-09-05T05:25:50.570Z,10
2017-09-05T05:26:59.400Z,10
2017-09-05T05:28:08.223Z,10
2017-09-05T05:29:17.051Z,10
2017-09-05T05:30:25.881Z,10
2017-09-05T05:31:34.706Z,10
2017-09-05T05:32:43.533Z,10
2017-09-05T05:33:52.360Z,10
2017-09-05T05:35:01.191Z,10
2017-09-05T05:36:10.019Z,10
2017-09-05T05:37:18.843Z,10
2017-09-05T05:38:27.671Z,10
2017-09-05T05:39:36.502Z,10
2017-09-05T05:40:45.327Z,15
2017-09-05T05:41:54.154Z,15
2017-09-05T05:43:02.980Z,15
2017-09-05T05:44:11.807Z,15
2017-09-05T05:45:20.635Z,15
2017-09-05T05:46:29.461Z,15
2017-09-05T05:47:38.291Z,15
2017-09-05T05:48:47.117Z,15
2017-09-05T05:49:55.942Z,15
2017-09-05T05:51:04.768Z,15
2017-09-05T05:52:13.599Z,15
2017-09-05T05:53:22.425Z,15
2017-09-05T05:54:31.256Z,15
2017-09-05T05:55:40.083Z,15
2017-09-05T05:56:48.917Z,15
2017-09-05T05:57:57.746Z,15
2017-09-05T05:59:06.571Z,15
2017-09-05T06:00:15.724Z,15
2017-09-05T06:01:24.553Z,15
2017-09-05T06:02:33.378Z,15
2017-09-05T06:03:42.530Z,20
2017-09-05T06:04:51.358Z,20
2017-09-05T06:06:00.186Z,20
2017-09-05T06:07:09.014Z,20
2017-09-05T06:08:17.846Z,20
2017-09-05T06:09:26.678Z,20
2017-09-05T06:10:35.504Z,20
2017-09-05T06:11:44.330Z,20
2017-09-05T06:12:53.154Z,20
2017-09-05T06:14:01.994Z,20
2017-09-05T06:15:10.826Z,20
2017-09-05T06:16:19.651Z,20
2017-09-05T06:17:28.479Z,20
2017-09-05T06:18:37.311Z,20
2017-09-05T06:19:46.133Z,20
2017-09-05T06:20:54.963Z,20
2017-09-05T06:22:03.792Z,25
2017-09-05T06:23:12.618Z,25
2017-09-05T06:24:21.444Z,25
2017-09-05T06:25:30.276Z,25
2017-09-05T06:26:39.105Z,25
2017-09-05T06:27:47.982Z,25
2017-09-05T06:28:56.810Z,25
2017-09-05T06:30:05.636Z,25
2017-09-05T06:31:14.464Z,25
2017-09-05T06:32:23.294Z,25
2017-09-05T06:33:32.121Z,25
2017-09-05T06:34:40.958Z,25
2017-09-05T06:35:49.790Z,25
2017-09-05T06:36:58.617Z,25
2017-09-05T06:38:07.441Z,25
2017-09-05T06:39:16.272Z,25
2017-09-05T06:40:25.101Z,25
2017-09-05T06:41:33.934Z,25
2017-09-05T06:42:42.762Z,25
2017-09-05T06:43:51.593Z,30
2017-09-05T06:45:00.419Z,30
2017-09-05T06:46:09.252Z,30
2017-09-05T06:47:18.083Z,30
2017-09-05T06:48:27.001Z,30
2017-09-05T06:49:35.834Z,30
2017-09-05T06:50:44.661Z,30
2017-09-05T06:51:53.575Z,30
2017-09-05T06:53:02.409Z,30
2017-09-05T06:54:11.305Z,30
2017-09-05T06:55:20.174Z,30
2017-09-05T06:56:29.080Z,30
2017-09-05T06:57:38.298Z,30
2017-09-05T06:58:47.446Z,30
2017-09-05T06:59:56.378Z,30
2017-09-05T07:01:05.671Z,30
2017-09-05T07:02:14.645Z,30
2017-09-05T07:03:23.505Z,30
2017-09-05T07:04:32.330Z,30
2017-09-05T07:05:41.157Z,30
2017-09-05T07:06:49.988Z,35
2017-09-05T07:07:58.812Z,35
2017-09-05T07:09:07.643Z,35
2017-09-05T07:10:16.470Z,35
2017-09-05T07:11:25.302Z,35
2017-09-05T07:12:34.127Z,35
2017-09-05T07:13:42.964Z,35
2017-09-05T07:14:51.794Z,35
2017-09-05T07:16:00.625Z,35
2017-09-05T07:17:09.454Z,35
2017-09-05T07:18:18.284Z,35
2017-09-05T07:19:27.110Z,35
2017-09-05T07:20:35.940Z,35
2017-09-05T07:21:44.774Z,35
2017-09-05T07:22:53.602Z,35
2017-09-05T07:24:02.433Z,35
2017-09-05T07:25:11.263Z,35
2017-09-05T07:26:20.090Z,35
2017-09-05T07:27:28.922Z,35
2017-09-05T07:28:37.749Z,35
2017-09-05T07:29:46.578Z,40
2017-09-05T07:30:55.407Z,40
2017-09-05T07:32:04.236Z,40
2017-09-05T07:33:13.066Z,40
2017-09-05T07:34:21.895Z,40
2017-09-05T07:35:30.723Z,40
2017-09-05T07:36:39.554Z,40
2017-09-05T07:37:48.382Z,40
2017-09-05T07:38:57.207Z,40
2017-09-05T07:40:06.035Z,40
2017-09-05T07:41:14.864Z,40
2017-09-05T07:42:23.687Z,40
2017-09-05T07:43:32.518Z,40
2017-09-05T07:44:41.354Z,40
2017-09-05T07:45:50.182Z,40
2017-09-05T07:46:59.011Z,40
2017-09-05T07:48:07.836Z,35
2017-09-05T07:49:16.664Z,35
2017-09-05T07:50:25.497Z,35
2017-09-05T07:51:34.328Z,40
2017-09-05T07:52:43.157Z,35
2017-09-05T07:53:52.309Z,40
2017-09-05T07:55:01.141Z,35
2017-09-05T07:56:09.967Z,35
2017-09-05T07:57:18.803Z,35
2017-09-05T07:58:27.628Z,35
2017-09-05T07:59:36.458Z,40
2017-09-05T08:00:45.288Z,40
2017-09-05T08:01:54.130Z,40
2017-09-05T08:03:03.273Z,40
2017-09-05T08:04:12.103Z,40
2017-09-05T08:05:20.936Z,40
2017-09-05T08:06:30.086Z,40
2017-09-05T08:07:38.917Z,40
2017-09-05T08:08:47.747Z,40
2017-09-05T08:09:56.570Z,40
2017-09-05T08:11:05.401Z,40
2017-09-05T08:12:14.231Z,40
2017-09-05T08:13:23.067Z,40
2017-09-05T08:14:31.901Z,40
2017-09-05T08:15:40.732Z,40
2017-09-05T08:16:49.558Z,40
2017-09-05T08:17:58.383Z,40
2017-09-05T08:19:07.216Z,40
2017-09-05T08:20:16.368Z,45
2017-09-05T08:21:25.194Z,45
2017-09-05T08:22:34.026Z,45
2017-09-05T08:23:42.855Z,40
2017-09-05T08:24:51.691Z,40
2017-09-05T08:26:00.520Z,45
2017-09-05T08:27:09.352Z,45
2017-09-05T08:28:18.176Z,45
2017-09-05T08:29:27.008Z,45
2017-09-05T08:30:35.842Z,45
2017-09-05T08:31:44.676Z,45
2017-09-05T08:32:53.510Z,45
2017-09-05T08:34:02.340Z,45
2017-09-05T08:35:11.168Z,45
2017-09-05T08:36:20.001Z,45
2017-09-05T08:37:28.833Z,45
2017-09-05T08:38:37.664Z,45
2017-09-05T08:39:46.498Z,45
2017-09-05T08:40:55.331Z,45
2017-09-05T08:42:04.157Z,45
2017-09-05T08:43:12.987Z,45
2017-09-05T08:44:21.816Z,45
2017-09-05T08:45:30.646Z,45
2017-09-05T08:46:39.481Z,40
2017-09-05T08:47:48.307Z,45
2017-09-05T08:48:57.133Z,45
2017-09-05T08:50:05.969Z,45
2017-09-05T08:51:14.800Z,45
2017-09-05T08:52:23.629Z,45
2017-09-05T08:53:32.460Z,45
2017-09-05T08:54:41.288Z,45
2017-09-05T08:55:50.115Z,45
2017-09-05T08:56:58.950Z,50
2017-09-05T08:58:07.781Z,45
2017-09-05T08:59:16.612Z,50
2017-09-05T09:00:25.444Z,50
2017-09-05T09:01:34.277Z,45
2017-09-05T09:02:43.434Z,45
2017-09-05T09:03:52.272Z,45
2017-09-05T09:05:01.146Z,45
2017-09-05T09:06:10.396Z,50
2017-09-05T09:07:19.467Z,45
2017-09-05T09:08:28.297Z,45
2017-09-05T09:09:37.134Z,50
2017-09-05T09:10:46.362Z,50
2017-09-05T09:11:55.530Z,45
2017-09-05T09:13:04.515Z,45
2017-09-05T09:14:13.351Z,45
2017-09-05T09:15:22.225Z,50
2017-09-05T09:16:31.365Z,50
2017-09-05T09:17:40.530Z,50
2017-09-05T09:18:49.362Z,50
2017-09-05T09:19:58.867Z,50
2017-09-05T09:21:07.699Z,50
2017-09-05T09:22:16.527Z,50
2017-09-05T09:23:25.361Z,50
2017-09-05T09:24:34.192Z,50
2017-09-05T09:25:43.024Z,50
2017-09-05T09:26:51.883Z,50
2017-09-05T09:28:00.713Z,50
2017-09-05T09:29:09.572Z,50
2017-09-05T09:30:18.412Z,55
2017-09-05T09:31:27.464Z,50
2017-09-05T09:32:36.302Z,50
2017-09-05T09:33:45.213Z,55
2017-09-05T09:34:54.047Z,55
2017-09-05T09:36:02.878Z,50
2017-09-05T09:37:11.715Z,55
2017-09-05T09:38:20.553Z,55
2017-09-05T09:39:29.378Z,55
2017-09-05T09:40:38.224Z,60
2017-09-05T09:41:47.381Z,55
2017-09-05T09:42:56.216Z,55
2017-09-05T09:44:05.048Z,55
2017-09-05T09:45:14.201Z,55
2017-09-05T09:46:23.036Z,55
2017-09-05T09:47:31.908Z,55
2017-09-05T09:48:40.754Z,55
2017-09-05T09:49:49.631Z,55
2017-09-05T09:50:58.515Z,55
2017-09-05T09:52:07.387Z,55
2017-09-05T09:53:16.213Z,55
2017-09-05T09:54:25.131Z,55
2017-09-05T09:55:34.304Z,55
2017-09-05T09:56:43.194Z,55
2017-09-05T09:57:52.423Z,55
2017-09-05T09:59:01.331Z,60
2017-09-05T10:00:10.225Z,60
2017-09-05T10:01:19.056Z,60
2017-09-05T10:02:28.248Z,65
2017-09-05T10:03:37.077Z,65
2017-09-05T10:04:45.954Z,60
2017-09-05T10:05:55.195Z,65
2017-09-05T10:07:04.204Z,65
2017-09-05T10:08:13.104Z,60
2017-09-05T10:09:22.299Z,60
2017-09-05T10:10:31.176Z,60
2017-09-05T10:11:40.061Z,70
2017-09-05T10:12:48.897Z,60
2017-09-05T10:13:57.801Z,70
2017-09-05T10:15:06.635Z,60
2017-09-05T10:16:15.674Z,55
2017-09-05T10:17:24.529Z,60
2017-09-05T10:18:33.343Z,70
2017-09-05T10:19:42.178Z,60
2017-09-05T10:20:51.348Z,35
2017-09-05T10:22:00.179Z,60
2017-09-05T10:23:09.010Z,60
2017-09-05T10:24:17.842Z,55
2017-09-05T10:25:26.673Z,60
2017-09-05T10:26:35.528Z,60
2017-09-05T10:27:44.355Z,60
2017-09-05T10:28:53.187Z,60
2017-09-05T10:30:02.022Z,60
2017-09-05T10:31:10.855Z,55
2017-09-05T10:32:19.688Z,60
2017-09-05T10:33:28.526Z,60
2017-09-05T10:34:37.469Z,60
2017-09-05T10:35:46.306Z,60
2017-09-05T10:36:55.134Z,60
2017-09-05T10:38:03.971Z,60
2017-09-05T10:39:12.800Z,60
2017-09-05T10:40:21.635Z,60
2017-09-05T10:41:30.472Z,60
2017-09-05T10:42:39.307Z,60
2017-09-05T10:43:48.161Z,60
2017-09-05T10:44:57.319Z,60
2017-09-05T10:46:06.152Z,60
2017-09-05T10:47:15.078Z,55
2017-09-05T10:48:23.912Z,55
2017-09-05T10:49:32.745Z,55
2017-09-05T10:50:41.584Z,60
2017-09-05T10:51:50.749Z,50
2017-09-05T10:52:59.582Z,55
2017-09-05T10:54:08.418Z,55
2017-09-05T10:55:17.252Z,50
2017-09-05T10:56:26.084Z,50
2017-09-05T10:57:34.918Z,35
2017-09-05T10:58:44.031Z,50
2017-09-05T10:59:52.862Z,55
2017-09-05T11:01:01.752Z,50
2017-09-05T11:02:10.591Z,55
2017-09-05T11:03:19.457Z,55
2017-09-05T11:04:28.292Z,50
2017-09-05T11:05:37.121Z,50
2017-09-05T11:06:46.415Z,50
2017-09-05T11:07:55.532Z,55
2017-09-05T11:09:04.370Z,55
2017-09-05T11:10:13.205Z,55
2017-09-05T11:11:22.044Z,55
2017-09-05T11:12:30.872Z,50
2017-09-05T11:13:39.861Z,55
2017-09-05T11:14:49.509Z,55
2017-09-05T11:15:58.431Z,55
2017-09-05T11:17:07.266Z,50
2017-09-05T11:18:16.415Z,50
2017-09-05T11:19:25.252Z,55
2017-09-05T11:20:34.085Z,55
2017-09-05T11:21:42.933Z,55
2017-09-05T11:22:51.801Z,55
2017-09-05T11:24:01.312Z,50
2017-09-05T11:25:10.178Z,55
2017-09-05T11:26:19.892Z,55
2017-09-05T11:27:28.891Z,55
2017-09-05T11:28:38.468Z,55
2017-09-05T11:29:47.350Z,55
2017-09-05T11:30:56.351Z,55
2017-09-05T11:32:05.201Z,50
2017-09-05T11:33:14.918Z,50
2017-09-05T11:34:24.553Z,50
2017-09-05T11:35:33.944Z,50
2017-09-05T11:36:43.108Z,50
2017-09-05T11:37:51.947Z,50
2017-09-05T11:39:00.784Z,50
2017-09-05T11:40:09.617Z,50
2017-09-05T11:41:18.447Z,45
2017-09-05T11:42:27.285Z,50
2017-09-05T11:43:36.500Z,45
2017-09-05T11:44:45.674Z,45
2017-09-05T11:45:54.530Z,45
2017-09-05T11:47:03.342Z,45
2017-09-05T11:48:12.322Z,45
2017-09-05T11:49:21.152Z,50
2017-09-05T11:50:30.070Z,45
2017-09-05T11:51:38.904Z,45
2017-09-05T11:52:47.736Z,45
2017-09-05T11:53:56.576Z,45
2017-09-05T11:55:05.406Z,45
2017-09-05T11:56:14.242Z,45
2017-09-05T11:57:23.071Z,50
2017-09-05T11:58:31.907Z,45
2017-09-05T11:59:40.744Z,45
2017-09-05T12:00:49.578Z,45
2017-09-05T12:01:58.411Z,45
2017-09-05T12:03:07.247Z,45
2017-09-05T12:04:16.086Z,50
2017-09-05T12:05:25.245Z,50
2017-09-05T12:06:34.081Z,50
2017-09-05T12:07:42.916Z,50
2017-09-05T12:08:52.071Z,50
2017-09-05T12:10:00.906Z,45
2017-09-05T12:11:09.736Z,50
2017-09-05T12:12:18.574Z,50
2017-09-05T12:13:27.410Z,50
2017-09-05T12:14:36.561Z,50
2017-09-05T12:15:45.396Z,50
2017-09-05T12:16:54.232Z,45
2017-09-05T12:18:03.063Z,45
2017-09-05T12:19:11.894Z,50
2017-09-05T12:20:21.058Z,50
2017-09-05T12:21:29.920Z,50
2017-09-05T12:22:39.043Z,45
2017-09-05T12:23:47.881Z,45
2017-09-05T12:24:56.712Z,45
2017-09-05T12:26:05.550Z,45
2017-09-05T12:27:14.385Z,40
2017-09-05T12:28:23.216Z,40
2017-09-05T12:29:32.047Z,40
2017-09-05T12:30:40.882Z,45
2017-09-05T12:31:49.716Z,40
2017-09-05T12:32:58.551Z,40
2017-09-05T12:34:07.381Z,40
2017-09-05T12:35:16.210Z,40
2017-09-05T12:36:25.037Z,40
2017-09-05T12:37:33.881Z,40
2017-09-05T12:38:42.717Z,40
2017-09-05T12:39:51.547Z,40
2017-09-05T12:41:00.379Z,40
2017-09-05T12:42:09.214Z,40
2017-09-05T12:43:18.043Z,40
2017-09-05T12:44:26.878Z,40
2017-09-05T12:45:35.713Z,45
2017-09-05T12:46:44.545Z,40
2017-09-05T12:47:53.378Z,40
2017-09-05T12:49:02.212Z,40
2017-09-05T12:50:11.372Z,40
2017-09-05T12:51:20.208Z,40
2017-09-05T12:52:29.041Z,40
2017-09-05T12:53:37.873Z,40
2017-09-05T12:54:46.707Z,45
2017-09-05T12:55:55.541Z,60
2017-09-05T12:57:04.378Z,185
2017-09-05T12:58:13.211Z,300
2017-09-05T12:59:22.046Z,65
2017-09-05T13:00:30.880Z,40
2017-09-05T13:01:39.719Z,40
2017-09-05T13:02:48.552Z,40
2017-09-05T13:03:57.384Z,40
2017-09-05T13:05:06.219Z,40
2017-09-05T13:06:15.054Z,40
2017-09-05T13:07:23.891Z,40
2017-09-05T13:08:32.725Z,40
2017-09-05T13:09:41.560Z,40
2017-09-05T13:10:50.393Z,40
2017-09-05T13:11:59.223Z,40
2017-09-05T13:13:08.062Z,40
2017-09-05T13:14:16.894Z,40
2017-09-05T13:15:25.730Z,40
2017-09-05T13:16:34.566Z,40
2017-09-05T13:17:43.395Z,40
2017-09-05T13:18:52.234Z,40
2017-09-05T13:20:01.071Z,45
2017-09-05T13:21:09.911Z,40
2017-09-05T13:22:18.741Z,40
2017-09-05T13:23:27.916Z,40
2017-09-05T13:24:36.745Z,40
2017-09-05T13:25:45.585Z,40
2017-09-05T13:26:54.424Z,40
2017-09-05T13:28:03.255Z,40
2017-09-05T13:29:12.086Z,40
2017-09-05T13:30:20.918Z,40
2017-09-05T13:31:29.750Z,40
2017-09-05T13:32:38.585Z,40
2017-09-05T13:33:47.420Z,40
2017-09-05T13:34:56.250Z,40
2017-09-05T13:36:05.086Z,40
2017-09-05T13:37:13.917Z,40
2017-09-05T13:38:22.755Z,40
2017-09-05T13:39:31.583Z,40
2017-09-05T13:40:40.425Z,40
2017-09-05T13:41:49.258Z,40
2017-09-05T13:42:58.088Z,40
2017-09-05T13:44:06.924Z,40
2017-09-05T13:45:15.764Z,45
2017-09-05T13:46:24.595Z,45
2017-09-05T13:47:33.767Z,40
2017-09-05T13:48:42.602Z,45
2017-09-05T13:49:51.433Z,40
2017-09-05T13:51:00.267Z,40
2017-09-05T13:52:09.105Z,40
2017-09-05T13:53:17.935Z,40
2017-09-05T13:54:26.776Z,40
2017-09-05T13:55:35.606Z,40
2017-09-05T13:56:44.444Z,40
2017-09-05T13:57:53.277Z,40
2017-09-05T13:59:02.110Z,40
2017-09-05T14:00:10.941Z,40
2017-09-05T14:01:19.778Z,40
2017-09-05T14:02:28.611Z,40
2017-09-05T14:03:37.442Z,40
2017-09-05T14:04:46.279Z,40
2017-09-05T14:05:55.112Z,40
2017-09-05T14:07:03.943Z,40
2017-09-05T14:08:12.774Z,40
2017-09-05T14:09:21.608Z,40
2017-09-05T14:10:30.442Z,40
2017-09-05T14:11:39.274Z,40
2017-09-05T14:12:48.113Z,40
2017-09-05T14:13:56.946Z,40
2017-09-05T14:15:06.135Z,40
2017-09-05T14:16:14.967Z,40
2017-09-05T14:17:23.799Z,40
2017-09-05T14:18:32.636Z,40
2017-09-05T14:19:41.470Z,40
2017-09-05T14:20:50.306Z,40
2017-09-05T14:21:59.136Z,40
2017-09-05T14:23:07.977Z,40
2017-09-05T14:24:16.803Z,40
2017-09-05T14:25:25.636Z,40
2017-09-05T14:26:34.474Z,40
2017-09-05T14:27:43.310Z,40
2017-09-05T14:28:52.148Z,35
2017-09-05T14:30:00.983Z,35
2017-09-05T14:31:09.819Z,35
2017-09-05T14:32:18.649Z,35
2017-09-05T14:33:27.489Z,35
2017-09-05T14:34:36.315Z,35
2017-09-05T14:35:45.152Z,35
2017-09-05T14:36:53.985Z,35
2017-09-05T14:38:02.818Z,35
2017-09-05T14:39:11.650Z,35
2017-09-05T14:40:20.482Z,35
2017-09-05T14:41:29.314Z,35
2017-09-05T14:42:38.146Z,35
2017-09-05T14:43:46.982Z,35
2017-09-05T14:44:55.811Z,35
2017-09-05T14:46:04.645Z,35
2017-09-05T14:47:13.479Z,35
2017-09-05T14:48:22.310Z,35
2017-09-05T14:49:31.144Z,35
2017-09-05T14:50:39.975Z,35
2017-09-05T14:51:48.809Z,35
2017-09-05T14:52:57.644Z,35
2017-09-05T14:54:06.483Z,35
2017-09-05T14:55:15.313Z,35
2017-09-05T14:56:24.146Z,35
2017-09-05T14:57:32.979Z,35
2017-09-05T14:58:41.819Z,60
2017-09-05T14:59:50.657Z,70
2017-09-05T15:00:59.490Z,55
2017-09-05T15:02:08.329Z,35
2017-09-05T15:03:17.160Z,35
2017-09-05T15:04:25.997Z,30
2017-09-05T15:05:34.835Z,30
2017-09-05T15:06:43.668Z,30
2017-09-05T15:07:52.502Z,30
2017-09-05T15:09:01.330Z,30
2017-09-05T15:10:10.168Z,30
2017-09-05T15:11:19.006Z,30
2017-09-05T15:12:27.839Z,30
2017-09-05T15:13:36.673Z,30
2017-09-05T15:14:45.506Z,30
2017-09-05T15:15:54.670Z,30
2017-09-05T15:17:03.499Z,30
2017-09-05T15:18:12.338Z,30
2017-09-05T15:19:21.170Z,30
2017-09-05T15:20:30.002Z,30
2017-09-05T15:21:38.835Z,25
2017-09-05T15:22:47.670Z,25
2017-09-05T15:23:56.504Z,25
2017-09-05T15:25:05.660Z,25
2017-09-05T15:26:14.497Z,30
2017-09-05T15:27:23.327Z,30
2017-09-05T15:28:32.493Z,25
2017-09-05T15:29:41.671Z,25
2017-09-05T15:30:50.654Z,25
2017-09-05T15:31:59.645Z,25
2017-09-05T15:33:08.555Z,25
2017-09-05T15:34:17.675Z,25
2017-09-05T15:35:26.511Z,25
2017-09-05T15:36:35.382Z,25
2017-09-05T15:37:44.426Z,25
2017-09-05T15:38:53.260Z,20
2017-09-05T15:40:02.438Z,20
2017-09-05T15:41:11.276Z,20
2017-09-05T15:42:20.114Z,20
2017-09-05T15:43:43.831Z,25
2017-09-05T15:44:52.670Z,20
2017-09-05T15:46:01.504Z,20
2017-09-05T15:47:10.339Z,20
2017-09-05T15:48:19.171Z,20
2017-09-05T15:49:28.043Z,15
2017-09-05T15:50:36.980Z,15
2017-09-05T15:51:45.809Z,15
2017-09-05T15:52:55.241Z,15
2017-09-05T15:54:04.262Z,15
2017-09-05T15:55:13.420Z,15
2017-09-05T15:56:22.308Z,15
2017-09-05T15:57:31.167Z,15
2017-09-05T15:58:40.921Z,15
2017-09-05T15:59:50.056Z,15
2017-09-05T16:00:58.893Z,15
2017-09-05T16:02:07.727Z,15
2017-09-05T16:03:16.560Z,15
2017-09-05T16:04:25.394Z,15
2017-09-05T16:05:34.229Z,15
2017-09-05T16:06:43.065Z,10
2017-09-05T16:07:51.898Z,10
2017-09-05T16:09:00.739Z,10
2017-09-05T16:10:09.571Z,10
2017-09-05T16:11:18.621Z,10
2017-09-05T16:12:27.778Z,10
2017-09-05T16:13:36.945Z,10
2017-09-05T16:14:45.861Z,10
2017-09-05T16:15:54.693Z,10
2017-09-05T16:17:03.535Z,10
2017-09-05T16:18:12.502Z,10
2017-09-05T16:19:21.522Z,10
2017-09-05T16:20:30.468Z,10
2017-09-05T16:21:39.305Z,10
2017-09-05T16:22:48.141Z,10
2017-09-05T16:23:56.980Z,5
2017-09-05T16:25:05.882Z,5
2017-09-05T16:26:14.790Z,5
2017-09-05T16:27:23.966Z,5
2017-09-05T16:28:32.805Z,5
2017-09-05T16:29:41.663Z,5
2017-09-05T16:30:51.350Z,5
2017-09-05T16:32:00.191Z,5
2017-09-05T16:33:09.028Z,5
2017-09-05T16:34:17.863Z,5